createdAt,value
2022-09-20T00:01:33.449Z,12.20
2022-09-20T00:04:05.321Z,12.20
2022-09-20T00:06:34.787Z,12.20
2022-09-20T00:09:04.175Z,12.20
2022-09-20T00:11:36.331Z,12.20
2022-09-20T00:14:08.678Z,12.20
2022-09-20T00:16:40.055Z,12.20
2022-09-20T00:19:10.074Z,12.20
2022-09-20T00:21:39.015Z,12.20
2022-09-20T00:24:07.790Z,12.20
2022-09-20T00:26:38.017Z,12.20
2022-09-20T00:29:06.704Z,12.20
2022-09-20T00:31:35.578Z,12.20
2022-09-20T00:34:21.952Z,12.20
2022-09-20T00:36:50.512Z,12.20
2022-09-20T00:39:19.072Z,12.20
2022-09-20T00:41:48.945Z,12.20
2022-09-20T00:44:48.810Z,12.20
2022-09-20T00:47:23.548Z,12.20
2022-09-20T00:49:55.502Z,12.20
2022-09-20T00:52:25.177Z,12.10
2022-09-20T00:54:54.679Z,12.10
2022-09-20T00:57:24.764Z,12.10
2022-09-20T00:59:54.993Z,12.10
2022-09-20T01:02:27.092Z,12.10
2022-09-20T01:04:57.592Z,12.10
2022-09-20T01:07:27.110Z,12.00
2022-09-20T01:09:55.585Z,12.10
2022-09-20T01:12:30.253Z,12.00
2022-09-20T01:15:00.649Z,12.00
2022-09-20T01:17:33.694Z,12.00
2022-09-20T01:20:12.525Z,12.00
2022-09-20T01:22:51.220Z,12.00
2022-09-20T01:25:31.740Z,12.00
2022-09-20T01:28:01.593Z,12.00
2022-09-20T01:30:39.885Z,12.00
2022-09-20T01:33:13.552Z,12.00
2022-09-20T01:35:45.588Z,12.00
2022-09-20T01:38:28.785Z,12.10
2022-09-20T01:41:05.131Z,12.00
2022-09-20T01:43:41.319Z,12.00
2022-09-20T01:46:22.996Z,12.10
2022-09-20T01:48:57.069Z,12.10
2022-09-20T01:51:53.461Z,12.10
2022-09-20T01:54:57.919Z,12.00
2022-09-20T01:58:04.168Z,12.00
2022-09-20T02:00:50.362Z,12.00
2022-09-20T02:03:51.758Z,12.10
2022-09-20T02:06:44.116Z,12.10
2022-09-20T02:09:41.698Z,12.00
2022-09-20T02:12:33.785Z,12.10
2022-09-20T02:15:11.729Z,12.00
2022-09-20T02:17:56.032Z,12.10
2022-09-20T02:20:40.219Z,12.00
2022-09-20T02:23:29.982Z,12.00
2022-09-20T02:26:12.366Z,12.10
2022-09-20T02:29:02.485Z,12.00
2022-09-20T02:31:56.872Z,12.10
2022-09-20T02:34:50.155Z,12.00
2022-09-20T02:37:41.460Z,12.00
2022-09-20T02:40:25.559Z,12.00
2022-09-20T02:43:04.770Z,12.00
2022-09-20T02:45:42.917Z,12.00
2022-09-20T02:48:11.786Z,12.00
2022-09-20T02:50:48.153Z,12.00
2022-09-20T02:53:33.648Z,11.90
2022-09-20T02:56:09.629Z,11.90
2022-09-20T02:58:47.425Z,11.90
2022-09-20T03:01:26.457Z,11.80
2022-09-20T03:04:08.985Z,11.80
2022-09-20T03:06:44.538Z,11.70
2022-09-20T03:09:19.507Z,11.70
2022-09-20T03:11:59.216Z,11.70
2022-09-20T03:14:34.098Z,11.60
2022-09-20T03:17:12.066Z,11.50
2022-09-20T03:19:54.675Z,11.50
2022-09-20T03:22:36.202Z,11.50
2022-09-20T03:25:24.575Z,11.50
2022-09-20T03:28:05.340Z,11.40
2022-09-20T03:30:47.012Z,11.40
2022-09-20T03:33:27.744Z,11.40
2022-09-20T03:36:09.879Z,11.40
2022-09-20T03:38:58.960Z,11.30
2022-09-20T03:41:46.468Z,11.30
2022-09-20T03:44:40.773Z,11.30
2022-09-20T03:47:23.818Z,11.20
2022-09-20T03:50:17.143Z,11.20
2022-09-20T03:52:58.396Z,11.20
2022-09-20T03:56:09.138Z,11.20
2022-09-20T03:59:02.521Z,11.30
2022-09-20T04:01:46.510Z,11.30
2022-09-20T04:04:23.956Z,11.20
2022-09-20T04:07:07.032Z,11.30
2022-09-20T04:10:13.620Z,11.30
2022-09-20T04:12:51.278Z,11.30
2022-09-20T04:15:33.294Z,11.30
2022-09-20T04:18:09.559Z,11.30
2022-09-20T04:20:46.340Z,11.30
2022-09-20T04:23:26.589Z,11.30
2022-09-20T04:25:55.405Z,11.30
2022-09-20T04:28:31.800Z,11.40
2022-09-20T04:31:10.222Z,11.40
2022-09-20T04:33:43.958Z,11.30
2022-09-20T04:36:30.316Z,11.30
2022-09-20T04:39:13.265Z,11.30
2022-09-20T04:42:39.044Z,11.30
2022-09-20T04:45:42.213Z,11.30
2022-09-20T04:48:42.818Z,11.30
2022-09-20T04:51:38.686Z,11.30
2022-09-20T04:54:37.257Z,11.30
2022-09-20T04:57:34.401Z,11.30
2022-09-20T05:00:08.705Z,11.30
2022-09-20T05:03:23.093Z,11.30
2022-09-20T05:06:30.044Z,11.30
2022-09-20T05:09:26.888Z,11.30
2022-09-20T05:12:10.098Z,11.30
2022-09-20T05:14:48.963Z,11.30
2022-09-20T05:17:26.639Z,11.30
2022-09-20T05:20:21.657Z,11.20
2022-09-20T05:23:22.273Z,11.30
2022-09-20T05:26:11.900Z,11.20
2022-09-20T05:28:50.062Z,11.20
2022-09-20T05:31:28.145Z,11.20
2022-09-20T05:34:03.969Z,11.20
2022-09-20T05:36:46.467Z,11.20
2022-09-20T05:39:27.921Z,11.30
2022-09-20T05:42:03.098Z,11.30
2022-09-20T05:44:43.511Z,11.30
2022-09-20T05:47:19.709Z,11.30
2022-09-20T05:49:58.643Z,11.30
2022-09-20T05:52:39.920Z,11.30
2022-09-20T05:55:28.780Z,11.40
2022-09-20T05:58:21.288Z,11.40
2022-09-20T06:00:55.155Z,11.40
2022-09-20T06:03:31.469Z,11.50
2022-09-20T06:06:06.521Z,11.50
2022-09-20T06:08:59.557Z,11.50
2022-09-20T06:11:49.633Z,11.50
2022-09-20T06:14:31.587Z,11.50
2022-09-20T06:17:08.094Z,11.50
2022-09-20T06:19:45.403Z,11.60
2022-09-20T06:22:20.585Z,11.60
2022-09-20T06:24:56.788Z,11.60
2022-09-20T06:27:29.427Z,11.60
2022-09-20T06:30:03.511Z,11.70
2022-09-20T06:32:32.220Z,11.70
2022-09-20T06:35:02.446Z,11.70
2022-09-20T06:38:02.430Z,11.80
2022-09-20T06:40:58.197Z,11.80
2022-09-20T06:43:27.794Z,11.80
2022-09-20T06:45:56.288Z,11.90
2022-09-20T06:48:25.124Z,11.90
2022-09-20T06:50:53.671Z,11.90
2022-09-20T06:53:33.477Z,12.00
2022-09-20T06:56:04.251Z,12.10
2022-09-20T06:58:32.741Z,12.10
2022-09-20T07:01:01.243Z,12.10
2022-09-20T07:03:31.673Z,12.10
2022-09-20T07:06:01.170Z,12.10
2022-09-20T07:08:29.641Z,12.10
2022-09-20T07:10:58.172Z,12.20
2022-09-20T07:13:28.060Z,12.20
2022-09-20T07:16:01.819Z,12.30
2022-09-20T07:18:31.123Z,12.30
2022-09-20T07:20:59.552Z,12.40
2022-09-20T07:23:29.773Z,12.40
2022-09-20T07:25:59.272Z,12.40
2022-09-20T07:28:29.888Z,12.40
2022-09-20T07:30:58.596Z,12.50
2022-09-20T07:33:27.104Z,12.60
2022-09-20T07:35:56.704Z,12.60
2022-09-20T07:38:25.300Z,12.70
2022-09-20T07:40:58.233Z,12.70
2022-09-20T07:43:28.313Z,12.70
2022-09-20T07:45:57.958Z,12.90
2022-09-20T07:48:28.780Z,12.80
2022-09-20T07:50:59.361Z,12.80
2022-09-20T07:53:27.953Z,12.90
2022-09-20T07:56:00.948Z,12.90
2022-09-20T07:58:32.254Z,13.00
2022-09-20T08:01:02.189Z,13.00
2022-09-20T08:03:32.007Z,13.00
2022-09-20T08:06:01.629Z,13.00
2022-09-20T08:08:32.558Z,13.10
2022-09-20T08:11:06.433Z,13.10
2022-09-20T08:16:28.397Z,13.30
2022-09-20T08:18:59.560Z,13.40
2022-09-20T08:21:31.809Z,13.40
2022-09-20T08:24:01.011Z,13.40
2022-09-20T08:26:31.417Z,13.50
2022-09-20T08:29:01.404Z,13.40
2022-09-20T08:31:34.388Z,13.40
2022-09-20T08:34:04.707Z,13.40
2022-09-20T08:36:36.763Z,13.40
2022-09-20T08:41:57.760Z,13.40
2022-09-20T08:44:35.084Z,13.40
2022-09-20T08:47:13.307Z,13.50
2022-09-20T08:49:46.192Z,13.60
2022-09-20T08:52:20.128Z,13.70
2022-09-20T08:54:48.634Z,13.70
2022-09-20T08:57:21.097Z,13.80
2022-09-20T08:59:51.377Z,13.80
2022-09-20T09:02:22.636Z,13.80
2022-09-20T09:04:53.592Z,13.80
2022-09-20T09:07:23.653Z,13.80
2022-09-20T09:09:55.196Z,13.80
2022-09-20T09:12:26.126Z,13.80
2022-09-20T09:15:00.760Z,13.70
2022-09-20T09:17:31.637Z,13.90
2022-09-20T09:20:07.928Z,14.00
2022-09-20T09:22:41.936Z,14.00
2022-09-20T09:25:26.786Z,14.10
2022-09-20T09:27:58.304Z,14.20
2022-09-20T09:30:31.852Z,14.30
2022-09-20T09:33:26.442Z,14.30
2022-09-20T09:36:00.530Z,14.30
2022-09-20T09:38:30.958Z,14.30
2022-09-20T09:41:01.381Z,14.30
2022-09-20T09:43:35.280Z,14.40
2022-09-20T09:46:23.145Z,14.40
2022-09-20T09:49:10.667Z,14.40
2022-09-20T09:51:43.097Z,14.40
2022-09-20T09:54:19.631Z,14.40
2022-09-20T09:57:00.825Z,14.50
2022-09-20T09:59:49.227Z,14.60
2022-09-20T10:02:48.020Z,14.60
2022-09-20T10:05:21.647Z,14.70
2022-09-20T10:07:55.150Z,14.70
2022-09-20T10:10:32.673Z,14.70
2022-09-20T10:13:16.095Z,14.70
2022-09-20T10:15:54.960Z,14.80
2022-09-20T10:18:44.883Z,14.90
2022-09-20T10:21:28.556Z,14.90
2022-09-20T10:24:13.330Z,14.90
2022-09-20T10:26:59.277Z,14.80
2022-09-20T10:29:40.141Z,14.70
2022-09-20T10:32:21.597Z,14.70
2022-09-20T10:35:23.445Z,14.60
2022-09-20T10:38:07.323Z,14.60
2022-09-20T10:40:59.828Z,14.50
2022-09-20T10:43:41.849Z,14.50
2022-09-20T10:46:34.899Z,14.50
2022-09-20T10:49:12.445Z,14.40
2022-09-20T10:51:55.484Z,14.40
2022-09-20T10:54:35.265Z,14.40
2022-09-20T10:57:19.106Z,14.40
2022-09-20T10:59:55.490Z,14.40
2022-09-20T11:02:56.697Z,14.40
2022-09-20T11:05:34.161Z,14.40
2022-09-20T11:08:11.920Z,14.40
2022-09-20T11:10:45.512Z,14.30
2022-09-20T11:13:24.966Z,14.20
2022-09-20T11:16:00.856Z,14.20
2022-09-20T11:18:35.655Z,14.20
2022-09-20T11:21:11.634Z,14.20
2022-09-20T11:23:50.935Z,14.10
2022-09-20T11:26:28.066Z,14.10
2022-09-20T11:29:04.517Z,14.20
2022-09-20T11:31:37.986Z,14.20
2022-09-20T11:34:12.822Z,14.40
2022-09-20T11:36:49.814Z,14.50
2022-09-20T11:39:26.610Z,14.60
2022-09-20T11:42:00.308Z,14.70
2022-09-20T11:44:29.415Z,14.80
2022-09-20T11:47:02.750Z,14.80
2022-09-20T11:49:46.013Z,14.80
2022-09-20T11:52:32.408Z,14.70
2022-09-20T11:55:28.031Z,14.70
2022-09-20T11:58:05.221Z,14.80
2022-09-20T12:00:36.469Z,14.80
2022-09-20T12:03:08.229Z,14.70
2022-09-20T12:05:39.972Z,14.80
2022-09-20T12:08:19.552Z,14.80
2022-09-20T12:10:58.539Z,14.80
2022-09-20T12:13:28.657Z,14.80
2022-09-20T12:16:03.850Z,14.80
2022-09-20T12:18:39.571Z,14.80
2022-09-20T12:21:15.301Z,14.80
2022-09-20T12:24:21.729Z,14.80
2022-09-20T12:26:56.739Z,14.90
2022-09-20T12:29:54.927Z,14.80
2022-09-20T12:32:51.938Z,14.80
2022-09-20T12:35:57.765Z,14.80
2022-09-20T12:38:39.718Z,14.80
2022-09-20T12:41:12.351Z,14.80
2022-09-20T12:44:04.429Z,14.80
2022-09-20T12:46:51.325Z,14.70
2022-09-20T12:49:49.371Z,14.60
2022-09-20T12:52:45.378Z,14.60
2022-09-20T12:55:30.109Z,14.60
2022-09-20T12:58:02.159Z,14.60
2022-09-20T13:00:39.012Z,14.70
2022-09-20T13:03:24.482Z,14.70
2022-09-20T13:06:22.912Z,14.70
2022-09-20T13:08:56.923Z,14.70
2022-09-20T13:11:30.446Z,14.80
2022-09-20T13:14:03.333Z,14.80
2022-09-20T13:16:35.256Z,14.80
2022-09-20T13:19:07.265Z,14.90
2022-09-20T13:21:40.827Z,14.90
2022-09-20T13:24:17.224Z,15.00
2022-09-20T13:26:47.902Z,15.10
2022-09-20T13:29:27.372Z,15.30
2022-09-20T13:31:56.977Z,15.40
2022-09-20T13:34:26.281Z,15.40
2022-09-20T13:36:59.356Z,15.50
2022-09-20T13:39:36.212Z,15.60
2022-09-20T13:42:11.384Z,15.70
2022-09-20T13:44:40.521Z,15.70
2022-09-20T13:47:27.132Z,15.70
2022-09-20T13:50:02.338Z,15.60
2022-09-20T13:52:32.929Z,15.60
2022-09-20T13:55:22.335Z,15.50
2022-09-20T13:57:50.845Z,15.50
2022-09-20T14:00:19.929Z,15.50
2022-09-20T14:02:49.814Z,15.50
2022-09-20T14:05:20.261Z,15.50
2022-09-20T14:07:49.777Z,15.50
2022-09-20T14:10:34.199Z,15.50
2022-09-20T14:13:06.482Z,15.40
2022-09-20T14:15:38.442Z,15.40
2022-09-20T14:18:12.758Z,15.40
2022-09-20T14:20:43.614Z,15.40
2022-09-20T14:23:22.486Z,15.40
2022-09-20T14:26:24.596Z,15.40
2022-09-20T14:28:53.549Z,15.30
2022-09-20T14:31:25.544Z,15.30
2022-09-20T14:33:56.416Z,15.20
2022-09-20T14:36:28.675Z,15.20
2022-09-20T14:39:00.070Z,15.20
2022-09-20T14:41:37.763Z,15.20
2022-09-20T14:44:17.257Z,15.20
2022-09-20T14:46:45.833Z,15.10
2022-09-20T14:49:22.265Z,15.10
2022-09-20T14:51:51.185Z,15.10
2022-09-20T14:54:27.943Z,15.10
2022-09-20T14:56:59.694Z,15.10
2022-09-20T14:59:30.421Z,15.00
2022-09-20T15:02:03.921Z,15.00
2022-09-20T15:04:35.355Z,15.00
2022-09-20T15:07:06.231Z,14.90
2022-09-20T15:09:35.756Z,14.90
2022-09-20T15:12:07.266Z,14.90
2022-09-20T15:14:37.790Z,14.90
2022-09-20T15:17:07.183Z,14.80
2022-09-20T15:19:35.660Z,14.80
2022-09-20T15:22:04.300Z,14.70
2022-09-20T15:24:32.750Z,14.80
2022-09-20T15:27:01.426Z,14.80
2022-09-20T15:29:31.578Z,15.00
2022-09-20T15:32:00.506Z,15.10
2022-09-20T15:34:29.113Z,15.30
2022-09-20T15:36:57.594Z,15.30
2022-09-20T15:39:26.275Z,15.30
2022-09-20T15:41:55.013Z,15.30
2022-09-20T15:44:23.545Z,15.30
2022-09-20T15:46:53.970Z,15.30
2022-09-20T15:49:22.725Z,15.40
2022-09-20T15:51:52.614Z,15.40
2022-09-20T15:54:21.141Z,15.40
2022-09-20T15:56:53.080Z,15.50
2022-09-20T15:59:23.149Z,15.50
2022-09-20T16:01:53.069Z,15.40
2022-09-20T16:04:21.695Z,15.40
2022-09-20T16:06:51.236Z,15.30
2022-09-20T16:09:20.373Z,15.20
2022-09-20T16:11:49.542Z,15.10
2022-09-20T16:14:18.052Z,15.10
2022-09-20T16:16:46.488Z,15.00
2022-09-20T16:19:19.981Z,15.00
2022-09-20T16:21:55.075Z,14.90
2022-09-20T16:24:26.923Z,14.80
2022-09-20T16:26:55.577Z,14.80
2022-09-20T16:29:25.632Z,14.70
2022-09-20T16:31:55.312Z,14.70
2022-09-20T16:34:29.637Z,14.60
2022-09-20T16:36:59.963Z,14.60
2022-09-20T16:39:29.527Z,14.60
2022-09-20T16:42:00.996Z,14.60
2022-09-20T16:44:29.453Z,14.60
2022-09-20T16:46:58.007Z,14.60
2022-09-20T16:49:29.466Z,14.60
2022-09-20T16:51:57.933Z,14.50
2022-09-20T16:54:31.018Z,14.50
2022-09-20T16:57:00.354Z,14.50
2022-09-20T16:59:28.871Z,14.40
2022-09-20T17:01:57.744Z,14.50
2022-09-20T17:04:27.671Z,14.40
2022-09-20T17:06:56.335Z,14.40
2022-09-20T17:09:24.893Z,14.40
2022-09-20T17:11:53.719Z,14.40
2022-09-20T17:14:22.171Z,14.30
2022-09-20T17:16:51.140Z,14.30
2022-09-20T17:19:21.261Z,14.20
2022-09-20T17:21:51.778Z,14.20
2022-09-20T17:24:21.498Z,14.20
2022-09-20T17:26:50.976Z,14.20
2022-09-20T17:29:20.391Z,14.20
2022-09-20T17:31:55.164Z,14.20
2022-09-20T17:34:26.294Z,14.10
2022-09-20T17:36:56.149Z,14.10
2022-09-20T17:39:24.994Z,14.10
2022-09-20T17:41:53.417Z,14.10
2022-09-20T17:44:22.201Z,14.00
2022-09-20T17:46:52.129Z,14.00
2022-09-20T17:49:22.297Z,14.00
2022-09-20T17:51:52.343Z,14.00
2022-09-20T17:54:23.427Z,14.00
2022-09-20T17:56:55.526Z,14.10
2022-09-20T17:59:24.505Z,14.00
2022-09-20T18:01:54.281Z,14.00
2022-09-20T18:04:24.304Z,14.00
2022-09-20T18:06:54.256Z,14.00
2022-09-20T18:09:27.130Z,14.00
2022-09-20T18:11:56.863Z,14.00
2022-09-20T18:14:27.319Z,14.00
2022-09-20T18:16:57.959Z,14.00
2022-09-20T18:19:32.517Z,13.90
2022-09-20T18:22:02.385Z,13.90
2022-09-20T18:24:32.639Z,13.90
2022-09-20T18:27:01.551Z,13.90
2022-09-20T18:29:36.373Z,13.90
2022-09-20T18:32:05.397Z,13.80
2022-09-20T18:34:34.137Z,13.80
2022-09-20T18:37:03.667Z,13.80
2022-09-20T18:39:34.754Z,13.80
2022-09-20T18:42:03.961Z,13.80
2022-09-20T18:44:33.539Z,13.80
2022-09-20T18:47:03.807Z,13.70
2022-09-20T18:49:34.357Z,13.70
2022-09-20T18:52:03.757Z,13.70
2022-09-20T18:54:33.879Z,13.60
2022-09-20T18:57:03.227Z,13.70
2022-09-20T18:59:32.416Z,13.60
2022-09-20T19:02:18.085Z,13.60
2022-09-20T19:05:17.201Z,13.50
2022-09-20T19:08:09.170Z,13.50
2022-09-20T19:10:45.256Z,13.50
2022-09-20T19:13:28.998Z,13.50
2022-09-20T19:16:11.255Z,13.40
2022-09-20T19:18:58.782Z,13.40
2022-09-20T19:21:32.283Z,13.40
2022-09-20T19:24:13.558Z,13.40
2022-09-20T19:26:44.576Z,13.30
2022-09-20T19:29:19.913Z,13.30
2022-09-20T19:31:50.119Z,13.30
2022-09-20T19:34:21.699Z,13.30
2022-09-20T19:37:03.358Z,13.30
2022-09-20T19:39:44.361Z,13.20
2022-09-20T19:42:22.200Z,13.20
2022-09-20T19:45:02.793Z,13.20
2022-09-20T19:47:38.061Z,13.10
2022-09-20T19:50:16.920Z,13.10
2022-09-20T19:52:46.149Z,13.00
2022-09-20T19:55:16.019Z,13.00
2022-09-20T19:57:47.991Z,12.90
2022-09-20T20:00:19.166Z,12.90
2022-09-20T20:02:48.604Z,12.80
2022-09-20T20:05:19.486Z,12.80
2022-09-20T20:07:53.456Z,12.80
2022-09-20T20:10:27.993Z,12.80
2022-09-20T20:13:04.230Z,12.70
2022-09-20T20:15:44.540Z,12.70
2022-09-20T20:18:26.129Z,12.70
2022-09-20T20:20:57.643Z,12.70
2022-09-20T20:23:49.212Z,12.70
2022-09-20T20:26:21.414Z,12.70
2022-09-20T20:28:52.404Z,12.60
2022-09-20T20:31:22.160Z,12.70
2022-09-20T20:33:50.780Z,12.70
2022-09-20T20:36:19.377Z,12.60
2022-09-20T20:38:52.626Z,12.70
2022-09-20T20:41:22.264Z,12.70
2022-09-20T20:43:57.279Z,12.60
2022-09-20T20:46:26.299Z,12.60
2022-09-20T20:48:54.957Z,12.60
2022-09-20T20:51:24.403Z,12.60
2022-09-20T20:53:55.484Z,12.60
2022-09-20T20:56:26.333Z,12.50
2022-09-20T20:58:57.760Z,12.60
2022-09-20T21:01:29.064Z,12.50
2022-09-20T21:03:58.485Z,12.50
2022-09-20T21:06:28.963Z,12.50
2022-09-20T21:08:57.760Z,12.40
2022-09-20T21:11:27.856Z,12.40
2022-09-20T21:14:00.106Z,12.40
2022-09-20T21:16:30.120Z,12.40
2022-09-20T21:18:59.575Z,12.30
2022-09-20T21:21:30.593Z,12.30
2022-09-20T21:24:01.203Z,12.20
2022-09-20T21:26:32.934Z,12.20
2022-09-20T21:29:05.173Z,12.20
2022-09-20T21:31:35.926Z,12.20
2022-09-20T21:34:06.634Z,12.20
2022-09-20T21:36:36.656Z,12.10
2022-09-20T21:39:06.384Z,12.10
2022-09-20T21:41:37.088Z,12.10
2022-09-20T21:44:09.752Z,12.00
2022-09-20T21:46:39.933Z,12.00
2022-09-20T21:49:10.061Z,11.90
2022-09-20T21:51:40.218Z,11.90
2022-09-20T21:54:09.187Z,11.80
2022-09-20T21:56:39.103Z,11.80
2022-09-20T21:59:09.445Z,11.80
2022-09-20T22:01:40.231Z,11.70
2022-09-20T22:04:10.754Z,11.70
2022-09-20T22:06:40.859Z,11.60
2022-09-20T22:09:11.200Z,11.60
2022-09-20T22:11:41.618Z,11.60
2022-09-20T22:14:12.972Z,11.60
2022-09-20T22:16:43.540Z,11.60
2022-09-20T22:19:14.762Z,11.50
2022-09-20T22:21:45.244Z,11.50
2022-09-20T22:24:15.694Z,11.50
2022-09-20T22:26:46.446Z,11.50
2022-09-20T22:29:16.945Z,11.50
2022-09-20T22:31:47.181Z,11.40
2022-09-20T22:34:17.462Z,11.30
2022-09-20T22:36:46.444Z,11.30
2022-09-20T22:39:15.919Z,11.30
2022-09-20T22:41:44.962Z,11.20
2022-09-20T22:44:15.186Z,11.20
2022-09-20T22:46:45.144Z,11.20
2022-09-20T22:49:14.207Z,11.20
2022-09-20T22:51:43.158Z,11.10
2022-09-20T22:54:13.084Z,11.10
2022-09-20T22:56:42.713Z,11.10
2022-09-20T22:59:13.381Z,11.10
2022-09-20T23:01:44.781Z,11.00
2022-09-20T23:04:15.921Z,11.00
2022-09-20T23:06:47.005Z,11.00
2022-09-20T23:09:18.039Z,10.90
2022-09-20T23:11:47.631Z,10.80
2022-09-20T23:14:18.021Z,10.80
2022-09-20T23:16:48.605Z,10.70
2022-09-20T23:19:17.994Z,10.70
2022-09-20T23:21:46.935Z,10.70
2022-09-20T23:24:16.438Z,10.60
2022-09-20T23:26:45.753Z,10.60
2022-09-20T23:29:16.454Z,10.50
2022-09-20T23:31:47.965Z,10.50
2022-09-20T23:34:17.611Z,10.40
2022-09-20T23:36:46.669Z,10.40
2022-09-20T23:39:15.409Z,10.40
2022-09-20T23:41:48.334Z,10.40
2022-09-20T23:44:19.762Z,10.40
2022-09-20T23:46:49.933Z,10.30
2022-09-20T23:49:18.737Z,10.30
2022-09-20T23:51:47.392Z,10.30
2022-09-20T23:54:16.194Z,10.20
2022-09-20T23:56:44.916Z,10.20
2022-09-20T23:59:13.527Z,10.20
